sensor_id;sensor_type;location;lat;lon;timestamp;temperature;humidity
16980;DHT22;42288;52.182;21.156;2024-02-26T00:01:41;6.10;99.90
16980;DHT22;42288;52.182;21.156;2024-02-26T00:04:09;6.10;99.90
16980;DHT22;42288;52.182;21.156;2024-02-26T00:06:35;6.00;99.90
16980;DHT22;42288;52.182;21.156;2024-02-26T00:09:01;6.00;99.90
16980;DHT22;42288;52.182;21.156;2024-02-26T00:11:28;6.00;99.90
16980;DHT22;42288;52.182;21.156;2024-02-26T00:13:53;6.10;99.90
16980;DHT22;42288;52.182;21.156;2024-02-26T00:16:19;6.00;99.90
16980;DHT22;42288;52.182;21.156;2024-02-26T00:18:44;6.10;99.90
16980;DHT22;42288;52.182;21.156;2024-02-26T00:21:12;6.10;99.90
16980;DHT22;42288;52.182;21.156;2024-02-26T00:23:37;6.10;99.90
16980;DHT22;42288;52.182;21.156;2024-02-26T00:26:03;6.10;99.90
16980;DHT22;42288;52.182;21.156;2024-02-26T00:28:29;6.10;99.90
16980;DHT22;42288;52.182;21.156;2024-02-26T00:30:54;6.10;99.90
16980;DHT22;42288;52.182;21.156;2024-02-26T00:33:22;6.00;99.90
16980;DHT22;42288;52.182;21.156;2024-02-26T00:35:48;6.00;99.90
16980;DHT22;42288;52.182;21.156;2024-02-26T00:38:14;6.10;99.90
16980;DHT22;42288;52.182;21.156;2024-02-26T00:40:40;6.00;99.90
16980;DHT22;42288;52.182;21.156;2024-02-26T00:43:08;6.00;99.90
16980;DHT22;42288;52.182;21.156;2024-02-26T00:45:34;6.00;99.90
16980;DHT22;42288;52.182;21.156;2024-02-26T00:47:59;5.90;99.90
16980;DHT22;42288;52.182;21.156;2024-02-26T00:50:34;5.90;99.90
16980;DHT22;42288;52.182;21.156;2024-02-26T00:53:00;5.80;99.90
16980;DHT22;42288;52.182;21.156;2024-02-26T00:55:26;5.80;99.90
16980;DHT22;42288;52.182;21.156;2024-02-26T00:57:51;5.80;99.90
16980;DHT22;42288;52.182;21.156;2024-02-26T01:00:17;5.80;99.90
16980;DHT22;42288;52.182;21.156;2024-02-26T01:02:43;5.80;99.90
16980;DHT22;42288;52.182;21.156;2024-02-26T01:05:12;5.80;99.90
16980;DHT22;42288;52.182;21.156;2024-02-26T01:07:38;5.80;99.90
16980;DHT22;42288;52.182;21.156;2024-02-26T01:10:05;5.80;99.90
16980;DHT22;42288;52.182;21.156;2024-02-26T01:12:34;5.70;99.90
16980;DHT22;42288;52.182;21.156;2024-02-26T01:15:03;5.70;99.90
16980;DHT22;42288;52.182;21.156;2024-02-26T01:17:29;5.60;99.90
16980;DHT22;42288;52.182;21.156;2024-02-26T01:19:54;5.50;99.90
16980;DHT22;42288;52.182;21.156;2024-02-26T01:22:20;5.50;99.90
16980;DHT22;42288;52.182;21.156;2024-02-26T01:24:46;5.50;99.90
16980;DHT22;42288;52.182;21.156;2024-02-26T01:27:12;5.50;99.90
16980;DHT22;42288;52.182;21.156;2024-02-26T01:29:39;5.40;99.90
16980;DHT22;42288;52.182;21.156;2024-02-26T01:32:05;5.40;99.90
16980;DHT22;42288;52.182;21.156;2024-02-26T01:34:31;5.30;99.90
16980;DHT22;42288;52.182;21.156;2024-02-26T01:36:57;5.20;99.90
16980;DHT22;42288;52.182;21.156;2024-02-26T01:39:23;5.20;99.90
16980;DHT22;42288;52.182;21.156;2024-02-26T01:41:48;5.10;99.90
16980;DHT22;42288;52.182;21.156;2024-02-26T01:44:14;5.10;99.90
16980;DHT22;42288;52.182;21.156;2024-02-26T01:46:40;5.00;99.90
16980;DHT22;42288;52.182;21.156;2024-02-26T01:49:06;5.00;99.90
16980;DHT22;42288;52.182;21.156;2024-02-26T01:51:33;5.00;99.90
16980;DHT22;42288;52.182;21.156;2024-02-26T01:54:00;5.00;99.90
16980;DHT22;42288;52.182;21.156;2024-02-26T01:56:28;4.90;99.90
16980;DHT22;42288;52.182;21.156;2024-02-26T01:58:56;5.00;99.90
16980;DHT22;42288;52.182;21.156;2024-02-26T02:01:25;4.90;99.90
16980;DHT22;42288;52.182;21.156;2024-02-26T02:03:52;4.90;99.90
16980;DHT22;42288;52.182;21.156;2024-02-26T02:06:19;4.80;99.90
16980;DHT22;42288;52.182;21.156;2024-02-26T02:08:44;4.70;99.90
16980;DHT22;42288;52.182;21.156;2024-02-26T02:11:10;4.70;99.90
16980;DHT22;42288;52.182;21.156;2024-02-26T02:13:37;4.70;99.90
16980;DHT22;42288;52.182;21.156;2024-02-26T02:16:03;4.60;99.90
16980;DHT22;42288;52.182;21.156;2024-02-26T02:18:29;4.60;99.90
16980;DHT22;42288;52.182;21.156;2024-02-26T02:20:55;4.60;99.90
16980;DHT22;42288;52.182;21.156;2024-02-26T02:23:22;4.60;99.90
16980;DHT22;42288;52.182;21.156;2024-02-26T02:25:48;4.50;99.90
16980;DHT22;42288;52.182;21.156;2024-02-26T02:28:13;4.50;99.90
16980;DHT22;42288;52.182;21.156;2024-02-26T02:30:39;4.50;99.90
16980;DHT22;42288;52.182;21.156;2024-02-26T02:33:05;4.50;99.90
16980;DHT22;42288;52.182;21.156;2024-02-26T02:35:31;4.50;99.90
16980;DHT22;42288;52.182;21.156;2024-02-26T02:37:57;4.50;99.90
16980;DHT22;42288;52.182;21.156;2024-02-26T02:40:23;4.40;99.90
16980;DHT22;42288;52.182;21.156;2024-02-26T02:42:48;4.40;99.90
16980;DHT22;42288;52.182;21.156;2024-02-26T02:45:14;4.40;99.90
16980;DHT22;42288;52.182;21.156;2024-02-26T02:47:40;4.40;99.90
16980;DHT22;42288;52.182;21.156;2024-02-26T02:50:06;4.40;99.90
16980;DHT22;42288;52.182;21.156;2024-02-26T02:52:31;4.30;99.90
16980;DHT22;42288;52.182;21.156;2024-02-26T02:54:58;4.20;99.90
16980;DHT22;42288;52.182;21.156;2024-02-26T02:57:23;4.10;99.90
16980;DHT22;42288;52.182;21.156;2024-02-26T02:59:49;4.00;99.90
16980;DHT22;42288;52.182;21.156;2024-02-26T03:02:14;4.00;99.90
16980;DHT22;42288;52.182;21.156;2024-02-26T03:04:40;4.00;99.90
16980;DHT22;42288;52.182;21.156;2024-02-26T03:07:06;3.90;99.90
16980;DHT22;42288;52.182;21.156;2024-02-26T03:09:31;4.00;99.90
16980;DHT22;42288;52.182;21.156;2024-02-26T03:11:57;4.00;99.90
16980;DHT22;42288;52.182;21.156;2024-02-26T03:14:23;3.90;99.90
16980;DHT22;42288;52.182;21.156;2024-02-26T03:16:49;4.00;99.90
16980;DHT22;42288;52.182;21.156;2024-02-26T03:19:15;3.90;99.90
16980;DHT22;42288;52.182;21.156;2024-02-26T03:21:42;4.00;99.90
16980;DHT22;42288;52.182;21.156;2024-02-26T03:24:07;4.00;99.90
16980;DHT22;42288;52.182;21.156;2024-02-26T03:26:36;4.00;99.90
16980;DHT22;42288;52.182;21.156;2024-02-26T03:29:01;4.00;99.90
16980;DHT22;42288;52.182;21.156;2024-02-26T03:31:28;3.90;99.90
16980;DHT22;42288;52.182;21.156;2024-02-26T03:33:54;4.00;99.90
16980;DHT22;42288;52.182;21.156;2024-02-26T03:36:19;3.90;99.90
16980;DHT22;42288;52.182;21.156;2024-02-26T03:38:47;3.90;99.90
16980;DHT22;42288;52.182;21.156;2024-02-26T03:41:12;3.90;99.90
16980;DHT22;42288;52.182;21.156;2024-02-26T03:43:38;3.90;99.90
16980;DHT22;42288;52.182;21.156;2024-02-26T03:46:04;3.80;99.90
16980;DHT22;42288;52.182;21.156;2024-02-26T03:48:32;3.90;99.90
16980;DHT22;42288;52.182;21.156;2024-02-26T03:50:57;3.90;99.90
16980;DHT22;42288;52.182;21.156;2024-02-26T03:53:23;3.90;99.90
16980;DHT22;42288;52.182;21.156;2024-02-26T03:55:49;3.90;99.90
16980;DHT22;42288;52.182;21.156;2024-02-26T03:58:17;3.80;99.90
16980;DHT22;42288;52.182;21.156;2024-02-26T04:00:43;3.90;99.90
16980;DHT22;42288;52.182;21.156;2024-02-26T04:03:08;3.90;99.90
16980;DHT22;42288;52.182;21.156;2024-02-26T04:05:34;3.90;99.90
16980;DHT22;42288;52.182;21.156;2024-02-26T04:07:59;3.90;99.90
16980;DHT22;42288;52.182;21.156;2024-02-26T04:10:25;3.90;99.90
16980;DHT22;42288;52.182;21.156;2024-02-26T04:12:51;3.90;99.90
16980;DHT22;42288;52.182;21.156;2024-02-26T04:15:17;3.90;99.90
16980;DHT22;42288;52.182;21.156;2024-02-26T04:17:42;3.80;99.90
16980;DHT22;42288;52.182;21.156;2024-02-26T04:20:13;3.90;99.90
16980;DHT22;42288;52.182;21.156;2024-02-26T04:22:39;3.90;99.90
16980;DHT22;42288;52.182;21.156;2024-02-26T04:25:05;3.90;99.90
16980;DHT22;42288;52.182;21.156;2024-02-26T04:27:30;3.90;99.90
16980;DHT22;42288;52.182;21.156;2024-02-26T04:29:56;3.80;99.90
16980;DHT22;42288;52.182;21.156;2024-02-26T04:32:22;3.90;99.90
16980;DHT22;42288;52.182;21.156;2024-02-26T04:34:47;3.70;99.90
16980;DHT22;42288;52.182;21.156;2024-02-26T04:37:13;3.80;99.90
16980;DHT22;42288;52.182;21.156;2024-02-26T04:39:38;3.70;99.90
16980;DHT22;42288;52.182;21.156;2024-02-26T04:42:04;3.70;99.90
16980;DHT22;42288;52.182;21.156;2024-02-26T04:44:30;3.60;99.90
16980;DHT22;42288;52.182;21.156;2024-02-26T04:46:56;3.60;99.90
16980;DHT22;42288;52.182;21.156;2024-02-26T04:49:22;3.60;99.90
16980;DHT22;42288;52.182;21.156;2024-02-26T04:51:47;3.60;99.90
16980;DHT22;42288;52.182;21.156;2024-02-26T04:54:13;3.60;99.90
16980;DHT22;42288;52.182;21.156;2024-02-26T04:56:39;3.60;99.90
16980;DHT22;42288;52.182;21.156;2024-02-26T04:59:05;3.60;99.90
16980;DHT22;42288;52.182;21.156;2024-02-26T05:01:30;3.70;99.90
16980;DHT22;42288;52.182;21.156;2024-02-26T05:03:56;3.70;99.90
16980;DHT22;42288;52.182;21.156;2024-02-26T05:06:21;3.70;99.90
16980;DHT22;42288;52.182;21.156;2024-02-26T05:08:47;3.70;99.90
16980;DHT22;42288;52.182;21.156;2024-02-26T05:11:13;3.80;99.90
16980;DHT22;42288;52.182;21.156;2024-02-26T05:13:38;3.90;99.90
16980;DHT22;42288;52.182;21.156;2024-02-26T05:16:04;4.00;99.90
16980;DHT22;42288;52.182;21.156;2024-02-26T05:18:30;4.00;99.90
16980;DHT22;42288;52.182;21.156;2024-02-26T05:20:56;4.10;99.90
16980;DHT22;42288;52.182;21.156;2024-02-26T05:23:21;4.10;99.90
16980;DHT22;42288;52.182;21.156;2024-02-26T05:25:48;4.10;99.90
16980;DHT22;42288;52.182;21.156;2024-02-26T05:28:13;4.20;99.90
16980;DHT22;42288;52.182;21.156;2024-02-26T05:30:41;4.10;99.90
16980;DHT22;42288;52.182;21.156;2024-02-26T05:33:07;4.10;99.90
16980;DHT22;42288;52.182;21.156;2024-02-26T05:35:33;4.20;99.90
16980;DHT22;42288;52.182;21.156;2024-02-26T05:37:58;4.20;99.90
16980;DHT22;42288;52.182;21.156;2024-02-26T05:40:24;4.20;99.90
16980;DHT22;42288;52.182;21.156;2024-02-26T05:42:49;4.20;99.90
16980;DHT22;42288;52.182;21.156;2024-02-26T05:45:15;4.20;99.90
16980;DHT22;42288;52.182;21.156;2024-02-26T05:47:41;4.30;99.90
16980;DHT22;42288;52.182;21.156;2024-02-26T05:50:10;4.20;99.90
16980;DHT22;42288;52.182;21.156;2024-02-26T05:52:36;4.20;99.90
16980;DHT22;42288;52.182;21.156;2024-02-26T05:55:04;4.20;99.90
16980;DHT22;42288;52.182;21.156;2024-02-26T05:57:30;4.20;99.90
16980;DHT22;42288;52.182;21.156;2024-02-26T05:59:56;4.30;99.90
16980;DHT22;42288;52.182;21.156;2024-02-26T06:02:21;4.40;99.90
16980;DHT22;42288;52.182;21.156;2024-02-26T06:04:47;4.50;99.90
16980;DHT22;42288;52.182;21.156;2024-02-26T06:07:13;4.50;99.90
16980;DHT22;42288;52.182;21.156;2024-02-26T06:09:38;4.50;99.90
16980;DHT22;42288;52.182;21.156;2024-02-26T06:12:05;4.60;99.90
16980;DHT22;42288;52.182;21.156;2024-02-26T06:14:30;4.60;99.90
16980;DHT22;42288;52.182;21.156;2024-02-26T06:16:56;4.70;99.90
16980;DHT22;42288;52.182;21.156;2024-02-26T06:19:21;4.70;99.90
16980;DHT22;42288;52.182;21.156;2024-02-26T06:21:47;4.80;99.90
16980;DHT22;42288;52.182;21.156;2024-02-26T06:24:13;4.90;99.90
16980;DHT22;42288;52.182;21.156;2024-02-26T06:26:38;5.00;99.90
16980;DHT22;42288;52.182;21.156;2024-02-26T06:29:04;5.10;99.90
16980;DHT22;42288;52.182;21.156;2024-02-26T06:31:29;5.20;99.90
16980;DHT22;42288;52.182;21.156;2024-02-26T06:33:55;5.30;99.90
16980;DHT22;42288;52.182;21.156;2024-02-26T06:36:22;5.40;99.90
16980;DHT22;42288;52.182;21.156;2024-02-26T06:38:47;5.60;99.90
16980;DHT22;42288;52.182;21.156;2024-02-26T06:41:14;5.70;99.90
16980;DHT22;42288;52.182;21.156;2024-02-26T06:43:40;5.80;99.90
16980;DHT22;42288;52.182;21.156;2024-02-26T06:46:06;5.90;99.90
16980;DHT22;42288;52.182;21.156;2024-02-26T06:48:31;6.00;99.90
16980;DHT22;42288;52.182;21.156;2024-02-26T06:50:57;6.00;99.90
16980;DHT22;42288;52.182;21.156;2024-02-26T06:53:23;6.10;99.90
16980;DHT22;42288;52.182;21.156;2024-02-26T06:55:48;6.10;99.90
16980;DHT22;42288;52.182;21.156;2024-02-26T06:58:15;6.20;99.90
16980;DHT22;42288;52.182;21.156;2024-02-26T07:00:41;6.40;99.90
16980;DHT22;42288;52.182;21.156;2024-02-26T07:03:06;6.40;99.90
16980;DHT22;42288;52.182;21.156;2024-02-26T07:05:32;6.50;99.90
16980;DHT22;42288;52.182;21.156;2024-02-26T07:07:58;6.50;99.90
16980;DHT22;42288;52.182;21.156;2024-02-26T07:10:23;6.60;99.90
16980;DHT22;42288;52.182;21.156;2024-02-26T07:12:49;6.80;99.90
16980;DHT22;42288;52.182;21.156;2024-02-26T07:15:14;6.90;99.90
16980;DHT22;42288;52.182;21.156;2024-02-26T07:17:40;7.00;99.90
16980;DHT22;42288;52.182;21.156;2024-02-26T07:20:13;7.10;99.90
16980;DHT22;42288;52.182;21.156;2024-02-26T07:22:39;7.20;99.90
16980;DHT22;42288;52.182;21.156;2024-02-26T07:25:05;7.40;99.90
16980;DHT22;42288;52.182;21.156;2024-02-26T07:27:33;7.50;99.90
16980;DHT22;42288;52.182;21.156;2024-02-26T07:29:58;7.60;99.90
16980;DHT22;42288;52.182;21.156;2024-02-26T07:32:24;7.70;99.90
16980;DHT22;42288;52.182;21.156;2024-02-26T07:34:50;7.90;99.90
16980;DHT22;42288;52.182;21.156;2024-02-26T07:37:15;8.00;99.90
16980;DHT22;42288;52.182;21.156;2024-02-26T07:39:41;8.10;99.90
16980;DHT22;42288;52.182;21.156;2024-02-26T07:42:07;8.20;99.90
16980;DHT22;42288;52.182;21.156;2024-02-26T07:44:33;8.40;99.90
16980;DHT22;42288;52.182;21.156;2024-02-26T07:46:59;8.50;99.90
16980;DHT22;42288;52.182;21.156;2024-02-26T07:49:24;8.60;99.90
16980;DHT22;42288;52.182;21.156;2024-02-26T07:51:50;8.70;99.90
16980;DHT22;42288;52.182;21.156;2024-02-26T07:54:15;8.90;99.90
16980;DHT22;42288;52.182;21.156;2024-02-26T07:56:41;9.00;99.90
16980;DHT22;42288;52.182;21.156;2024-02-26T07:59:07;9.10;99.90
16980;DHT22;42288;52.182;21.156;2024-02-26T08:01:33;9.20;99.90
16980;DHT22;42288;52.182;21.156;2024-02-26T08:04:00;9.40;99.90
16980;DHT22;42288;52.182;21.156;2024-02-26T08:06:25;9.50;99.90
16980;DHT22;42288;52.182;21.156;2024-02-26T08:08:51;9.60;99.90
16980;DHT22;42288;52.182;21.156;2024-02-26T08:11:16;9.70;99.90
16980;DHT22;42288;52.182;21.156;2024-02-26T08:13:42;9.80;99.90
16980;DHT22;42288;52.182;21.156;2024-02-26T08:16:08;10.00;99.90
16980;DHT22;42288;52.182;21.156;2024-02-26T08:18:33;10.10;99.90
16980;DHT22;42288;52.182;21.156;2024-02-26T08:20:59;10.20;99.90
16980;DHT22;42288;52.182;21.156;2024-02-26T08:23:25;10.30;99.90
16980;DHT22;42288;52.182;21.156;2024-02-26T08:25:51;10.40;99.90
16980;DHT22;42288;52.182;21.156;2024-02-26T08:28:17;10.50;99.90
16980;DHT22;42288;52.182;21.156;2024-02-26T08:30:43;10.60;99.90
16980;DHT22;42288;52.182;21.156;2024-02-26T08:33:09;10.70;99.90
16980;DHT22;42288;52.182;21.156;2024-02-26T08:35:36;10.70;99.90
16980;DHT22;42288;52.182;21.156;2024-02-26T08:38:01;10.80;99.90
16980;DHT22;42288;52.182;21.156;2024-02-26T08:40:28;10.80;99.90
16980;DHT22;42288;52.182;21.156;2024-02-26T08:42:53;10.90;99.90
16980;DHT22;42288;52.182;21.156;2024-02-26T08:45:19;10.90;99.90
16980;DHT22;42288;52.182;21.156;2024-02-26T08:47:45;10.90;99.90
16980;DHT22;42288;52.182;21.156;2024-02-26T08:50:11;11.00;99.90
16980;DHT22;42288;52.182;21.156;2024-02-26T08:52:38;11.20;99.90
16980;DHT22;42288;52.182;21.156;2024-02-26T08:55:04;11.10;99.90
16980;DHT22;42288;52.182;21.156;2024-02-26T08:57:31;11.20;99.90
16980;DHT22;42288;52.182;21.156;2024-02-26T08:59:58;11.30;99.90
16980;DHT22;42288;52.182;21.156;2024-02-26T09:02:24;11.40;99.90
16980;DHT22;42288;52.182;21.156;2024-02-26T09:04:49;11.50;99.90
16980;DHT22;42288;52.182;21.156;2024-02-26T09:07:18;11.40;99.90
16980;DHT22;42288;52.182;21.156;2024-02-26T09:09:44;11.30;99.90
16980;DHT22;42288;52.182;21.156;2024-02-26T09:12:10;11.50;99.90
16980;DHT22;42288;52.182;21.156;2024-02-26T09:14:35;11.40;99.90
16980;DHT22;42288;52.182;21.156;2024-02-26T09:17:01;11.50;99.90
16980;DHT22;42288;52.182;21.156;2024-02-26T09:19:27;11.40;99.90
16980;DHT22;42288;52.182;21.156;2024-02-26T09:21:55;11.30;99.90
16980;DHT22;42288;52.182;21.156;2024-02-26T09:24:23;11.30;99.90
16980;DHT22;42288;52.182;21.156;2024-02-26T09:26:49;11.60;99.90
16980;DHT22;42288;52.182;21.156;2024-02-26T09:29:15;11.50;99.90
16980;DHT22;42288;52.182;21.156;2024-02-26T09:31:40;11.70;99.90
16980;DHT22;42288;52.182;21.156;2024-02-26T09:34:07;11.70;99.90
16980;DHT22;42288;52.182;21.156;2024-02-26T09:36:33;11.70;99.90
16980;DHT22;42288;52.182;21.156;2024-02-26T09:38:59;11.80;99.90
16980;DHT22;42288;52.182;21.156;2024-02-26T09:41:28;11.70;99.90
16980;DHT22;42288;52.182;21.156;2024-02-26T09:43:56;11.70;99.90
16980;DHT22;42288;52.182;21.156;2024-02-26T09:46:25;11.70;99.90
16980;DHT22;42288;52.182;21.156;2024-02-26T09:48:50;11.70;99.90
16980;DHT22;42288;52.182;21.156;2024-02-26T09:51:16;11.80;99.90
16980;DHT22;42288;52.182;21.156;2024-02-26T09:53:44;11.80;99.90
16980;DHT22;42288;52.182;21.156;2024-02-26T09:56:12;11.90;99.90
16980;DHT22;42288;52.182;21.156;2024-02-26T09:58:41;11.80;99.90
16980;DHT22;42288;52.182;21.156;2024-02-26T10:01:13;11.80;99.90
16980;DHT22;42288;52.182;21.156;2024-02-26T10:03:41;11.60;99.90
16980;DHT22;42288;52.182;21.156;2024-02-26T10:06:10;11.60;99.90
16980;DHT22;42288;52.182;21.156;2024-02-26T10:08:36;11.60;99.90
16980;DHT22;42288;52.182;21.156;2024-02-26T10:11:04;11.80;99.90
16980;DHT22;42288;52.182;21.156;2024-02-26T10:13:30;11.80;99.90
16980;DHT22;42288;52.182;21.156;2024-02-26T10:15:55;11.90;99.90
16980;DHT22;42288;52.182;21.156;2024-02-26T10:18:23;11.90;99.90
16980;DHT22;42288;52.182;21.156;2024-02-26T10:21:02;12.00;99.90
16980;DHT22;42288;52.182;21.156;2024-02-26T10:23:28;12.00;99.90
16980;DHT22;42288;52.182;21.156;2024-02-26T10:25:56;12.20;99.90
16980;DHT22;42288;52.182;21.156;2024-02-26T10:28:23;12.10;99.90
16980;DHT22;42288;52.182;21.156;2024-02-26T10:30:48;12.10;99.90
16980;DHT22;42288;52.182;21.156;2024-02-26T10:33:15;12.30;99.90
16980;DHT22;42288;52.182;21.156;2024-02-26T10:35:47;12.30;99.90
16980;DHT22;42288;52.182;21.156;2024-02-26T10:38:13;12.40;99.90
16980;DHT22;42288;52.182;21.156;2024-02-26T10:40:42;12.50;99.90
16980;DHT22;42288;52.182;21.156;2024-02-26T10:43:08;12.60;99.90
16980;DHT22;42288;52.182;21.156;2024-02-26T10:45:34;12.70;99.90
16980;DHT22;42288;52.182;21.156;2024-02-26T10:48:00;12.80;99.90
16980;DHT22;42288;52.182;21.156;2024-02-26T10:50:26;12.90;99.90
16980;DHT22;42288;52.182;21.156;2024-02-26T10:52:52;13.10;99.90
16980;DHT22;42288;52.182;21.156;2024-02-26T10:55:18;13.30;99.90
16980;DHT22;42288;52.182;21.156;2024-02-26T10:57:45;13.30;99.90
16980;DHT22;42288;52.182;21.156;2024-02-26T11:00:14;13.50;99.90
16980;DHT22;42288;52.182;21.156;2024-02-26T11:02:41;13.80;99.90
16980;DHT22;42288;52.182;21.156;2024-02-26T11:05:07;14.00;99.90
16980;DHT22;42288;52.182;21.156;2024-02-26T11:07:34;13.90;99.90
16980;DHT22;42288;52.182;21.156;2024-02-26T11:10:03;14.10;99.90
16980;DHT22;42288;52.182;21.156;2024-02-26T11:12:31;14.70;99.90
16980;DHT22;42288;52.182;21.156;2024-02-26T11:14:57;14.80;99.90
16980;DHT22;42288;52.182;21.156;2024-02-26T11:17:28;15.50;99.90
16980;DHT22;42288;52.182;21.156;2024-02-26T11:19:57;15.50;99.90
16980;DHT22;42288;52.182;21.156;2024-02-26T11:22:27;15.40;99.90
16980;DHT22;42288;52.182;21.156;2024-02-26T11:24:53;15.30;99.90
16980;DHT22;42288;52.182;21.156;2024-02-26T11:27:29;14.90;99.90
16980;DHT22;42288;52.182;21.156;2024-02-26T11:29:57;14.50;99.90
16980;DHT22;42288;52.182;21.156;2024-02-26T11:32:26;14.50;99.90
16980;DHT22;42288;52.182;21.156;2024-02-26T11:34:53;14.70;99.90
16980;DHT22;42288;52.182;21.156;2024-02-26T11:37:20;15.00;99.90
16980;DHT22;42288;52.182;21.156;2024-02-26T11:39:46;15.30;99.90
16980;DHT22;42288;52.182;21.156;2024-02-26T11:42:14;15.30;99.90
16980;DHT22;42288;52.182;21.156;2024-02-26T11:44:40;15.20;99.90
16980;DHT22;42288;52.182;21.156;2024-02-26T11:47:12;15.20;99.90
16980;DHT22;42288;52.182;21.156;2024-02-26T11:49:38;15.10;99.90
16980;DHT22;42288;52.182;21.156;2024-02-26T11:52:07;15.00;99.90
16980;DHT22;42288;52.182;21.156;2024-02-26T11:54:49;14.90;99.90
16980;DHT22;42288;52.182;21.156;2024-02-26T11:57:38;14.70;99.90
16980;DHT22;42288;52.182;21.156;2024-02-26T12:02:45;14.40;99.90
16980;DHT22;42288;52.182;21.156;2024-02-26T12:05:13;14.40;99.90
16980;DHT22;42288;52.182;21.156;2024-02-26T12:07:46;14.60;99.90
16980;DHT22;42288;52.182;21.156;2024-02-26T12:10:25;14.90;99.90
16980;DHT22;42288;52.182;21.156;2024-02-26T12:12:58;15.50;99.90
16980;DHT22;42288;52.182;21.156;2024-02-26T12:15:31;15.90;99.90
16980;DHT22;42288;52.182;21.156;2024-02-26T12:17:58;16.30;99.90
16980;DHT22;42288;52.182;21.156;2024-02-26T12:20:25;16.70;99.90
16980;DHT22;42288;52.182;21.156;2024-02-26T12:22:52;16.90;99.90
16980;DHT22;42288;52.182;21.156;2024-02-26T12:25:26;17.00;99.90
16980;DHT22;42288;52.182;21.156;2024-02-26T12:27:53;17.00;99.90
16980;DHT22;42288;52.182;21.156;2024-02-26T12:30:19;17.20;99.90
16980;DHT22;42288;52.182;21.156;2024-02-26T12:32:46;17.30;99.90
16980;DHT22;42288;52.182;21.156;2024-02-26T12:35:12;17.40;99.90
16980;DHT22;42288;52.182;21.156;2024-02-26T12:37:38;17.20;99.90
16980;DHT22;42288;52.182;21.156;2024-02-26T12:40:09;17.50;99.90
16980;DHT22;42288;52.182;21.156;2024-02-26T12:42:38;17.80;99.90
16980;DHT22;42288;52.182;21.156;2024-02-26T12:45:11;18.10;99.90
16980;DHT22;42288;52.182;21.156;2024-02-26T12:47:44;18.30;99.90
16980;DHT22;42288;52.182;21.156;2024-02-26T12:50:15;18.40;99.90
16980;DHT22;42288;52.182;21.156;2024-02-26T12:52:45;18.30;99.90
16980;DHT22;42288;52.182;21.156;2024-02-26T12:55:16;18.00;99.90
16980;DHT22;42288;52.182;21.156;2024-02-26T12:57:43;17.60;99.90
16980;DHT22;42288;52.182;21.156;2024-02-26T13:00:12;17.50;99.90
16980;DHT22;42288;52.182;21.156;2024-02-26T13:02:41;17.60;99.90
16980;DHT22;42288;52.182;21.156;2024-02-26T13:05:10;17.50;99.90
16980;DHT22;42288;52.182;21.156;2024-02-26T13:07:41;17.60;99.90
16980;DHT22;42288;52.182;21.156;2024-02-26T13:10:07;17.50;99.90
16980;DHT22;42288;52.182;21.156;2024-02-26T13:12:33;17.30;99.90
16980;DHT22;42288;52.182;21.156;2024-02-26T13:15:03;17.30;99.90
16980;DHT22;42288;52.182;21.156;2024-02-26T13:17:32;17.50;99.90
16980;DHT22;42288;52.182;21.156;2024-02-26T13:19:58;17.60;99.90
16980;DHT22;42288;52.182;21.156;2024-02-26T13:22:24;17.70;99.90
16980;DHT22;42288;52.182;21.156;2024-02-26T13:24:59;17.60;99.90
16980;DHT22;42288;52.182;21.156;2024-02-26T13:27:25;17.60;99.90
16980;DHT22;42288;52.182;21.156;2024-02-26T13:30:10;17.50;99.90
16980;DHT22;42288;52.182;21.156;2024-02-26T13:32:37;17.50;99.90
16980;DHT22;42288;52.182;21.156;2024-02-26T13:35:07;17.30;99.90
16980;DHT22;42288;52.182;21.156;2024-02-26T13:37:37;17.30;99.90
16980;DHT22;42288;52.182;21.156;2024-02-26T13:40:11;17.30;99.90
16980;DHT22;42288;52.182;21.156;2024-02-26T13:42:37;17.30;99.90
16980;DHT22;42288;52.182;21.156;2024-02-26T13:45:04;17.30;99.90
16980;DHT22;42288;52.182;21.156;2024-02-26T13:47:34;17.20;99.90
16980;DHT22;42288;52.182;21.156;2024-02-26T13:49:59;17.20;99.90
16980;DHT22;42288;52.182;21.156;2024-02-26T13:52:26;17.20;99.90
16980;DHT22;42288;52.182;21.156;2024-02-26T13:54:52;17.40;99.90
16980;DHT22;42288;52.182;21.156;2024-02-26T13:57:19;17.30;99.90
16980;DHT22;42288;52.182;21.156;2024-02-26T13:59:45;17.20;99.90
16980;DHT22;42288;52.182;21.156;2024-02-26T14:02:10;17.10;99.90
16980;DHT22;42288;52.182;21.156;2024-02-26T14:04:37;17.00;99.90
16980;DHT22;42288;52.182;21.156;2024-02-26T14:07:03;16.80;99.90
16980;DHT22;42288;52.182;21.156;2024-02-26T14:09:29;16.70;99.90
16980;DHT22;42288;52.182;21.156;2024-02-26T14:11:55;16.60;99.90
16980;DHT22;42288;52.182;21.156;2024-02-26T14:14:21;16.50;99.90
16980;DHT22;42288;52.182;21.156;2024-02-26T14:16:46;16.30;99.90
16980;DHT22;42288;52.182;21.156;2024-02-26T14:19:12;16.30;99.90
16980;DHT22;42288;52.182;21.156;2024-02-26T14:21:38;16.30;99.90
16980;DHT22;42288;52.182;21.156;2024-02-26T14:24:04;16.20;99.90
16980;DHT22;42288;52.182;21.156;2024-02-26T14:26:30;16.00;99.90
16980;DHT22;42288;52.182;21.156;2024-02-26T14:28:55;16.00;99.90
16980;DHT22;42288;52.182;21.156;2024-02-26T14:31:21;16.00;99.90
16980;DHT22;42288;52.182;21.156;2024-02-26T14:33:47;16.00;99.90
16980;DHT22;42288;52.182;21.156;2024-02-26T14:36:13;16.00;99.90
16980;DHT22;42288;52.182;21.156;2024-02-26T14:38:39;16.10;99.90
16980;DHT22;42288;52.182;21.156;2024-02-26T14:41:05;16.20;99.90
16980;DHT22;42288;52.182;21.156;2024-02-26T14:43:31;16.20;99.90
16980;DHT22;42288;52.182;21.156;2024-02-26T14:46:00;16.20;99.90
16980;DHT22;42288;52.182;21.156;2024-02-26T14:48:26;16.30;99.90
16980;DHT22;42288;52.182;21.156;2024-02-26T14:50:52;16.40;99.90
16980;DHT22;42288;52.182;21.156;2024-02-26T14:53:18;16.50;99.90
16980;DHT22;42288;52.182;21.156;2024-02-26T14:55:44;16.40;99.90
16980;DHT22;42288;52.182;21.156;2024-02-26T14:58:09;16.30;99.90
16980;DHT22;42288;52.182;21.156;2024-02-26T15:00:41;16.30;99.90
16980;DHT22;42288;52.182;21.156;2024-02-26T15:03:06;16.10;99.90
16980;DHT22;42288;52.182;21.156;2024-02-26T15:05:33;15.90;99.90
16980;DHT22;42288;52.182;21.156;2024-02-26T15:07:59;15.80;99.90
16980;DHT22;42288;52.182;21.156;2024-02-26T15:10:25;15.70;99.90
16980;DHT22;42288;52.182;21.156;2024-02-26T15:12:52;15.50;99.90
16980;DHT22;42288;52.182;21.156;2024-02-26T15:15:22;15.50;99.90
16980;DHT22;42288;52.182;21.156;2024-02-26T15:17:48;15.40;99.90
16980;DHT22;42288;52.182;21.156;2024-02-26T15:20:16;15.30;99.90
16980;DHT22;42288;52.182;21.156;2024-02-26T15:22:42;15.20;99.90
16980;DHT22;42288;52.182;21.156;2024-02-26T15:25:08;15.10;99.90